Time;durP1;ratioP1;P1;durP2;ratioP2;P2;SDS_P1;SDS_P2;PMS_P1;PMS_P2;Temp;Humidity;BMP_temperature;BMP_pressure;BME280_temperature;BME280_humidity;BME280_pressure;Samples;Min_cycle;Max_cycle;Signal;HPM_P1;HPM_P2
2021/04/14 00:00:21;;;;;;;19.17;11.13;;;0.40;99.90;;;;;;5032130;28;20053;-77
2021/04/14 00:02:47;;;;;;;15.77;9.30;;;0.30;99.90;;;;;;5031027;28;20739;-77
2021/04/14 00:05:16;;;;;;;17.60;10.00;;;0.30;99.90;;;;;;5024234;28;20512;-78
2021/04/14 00:07:42;;;;;;;16.83;10.32;;;0.30;99.90;;;;;;5036402;28;20029;-79
2021/04/14 00:10:08;;;;;;;17.27;9.33;;;0.30;99.90;;;;;;5029950;28;20064;-78
2021/04/14 00:12:34;;;;;;;18.83;10.77;;;0.30;99.90;;;;;;5032629;28;20108;-78
2021/04/14 00:15:00;;;;;;;17.77;10.90;;;0.20;99.90;;;;;;5031250;28;20385;-78
2021/04/14 00:17:25;;;;;;;18.60;11.00;;;0.20;99.90;;;;;;5030834;28;20052;-78
2021/04/14 00:19:51;;;;;;;19.33;11.13;;;0.20;99.90;;;;;;5030292;28;20424;-79
2021/04/14 00:22:16;;;;;;;15.63;9.53;;;0.10;99.90;;;;;;5030054;28;20397;-77
2021/04/14 00:24:43;;;;;;;19.23;9.90;;;0.10;99.90;;;;;;5027794;28;20046;-78
2021/04/14 00:27:09;;;;;;;17.00;10.57;;;0.10;99.90;;;;;;5030441;28;20025;-78
2021/04/14 00:29:35;;;;;;;16.33;9.87;;;0.10;99.90;;;;;;5024787;28;20048;-78
2021/04/14 00:32:02;;;;;;;17.13;10.60;;;0.00;99.90;;;;;;5031630;28;20501;-77
2021/04/14 00:34:28;;;;;;;16.83;9.63;;;0.00;99.90;;;;;;5029033;28;20033;-78
2021/04/14 00:36:54;;;;;;;15.63;9.33;;;0.00;99.90;;;;;;5030030;28;20069;-77
2021/04/14 00:39:25;;;;;;;15.73;9.93;;;-0.10;99.90;;;;;;5029063;28;20479;-78
2021/04/14 00:41:54;;;;;;;16.60;9.23;;;-0.10;99.90;;;;;;5030762;28;20424;-78
2021/04/14 00:44:21;;;;;;;16.27;8.75;;;-0.10;99.90;;;;;;5029114;28;20021;-78
2021/04/14 00:46:46;;;;;;;15.63;8.90;;;-0.10;99.90;;;;;;5029537;28;20025;-78
2021/04/14 00:49:13;;;;;;;15.63;8.80;;;-0.10;99.90;;;;;;5014981;28;20047;-77
2021/04/14 00:51:39;;;;;;;15.60;8.77;;;-0.10;99.90;;;;;;5030760;28;20025;-78
2021/04/14 00:54:05;;;;;;;15.20;8.67;;;-0.10;99.90;;;;;;5028068;28;20452;-79
2021/04/14 00:56:30;;;;;;;13.27;8.30;;;-0.10;99.90;;;;;;5030597;28;20125;-79
2021/04/14 00:58:56;;;;;;;15.60;7.80;;;-0.10;99.90;;;;;;5033348;28;20029;-79
2021/04/14 01:01:22;;;;;;;14.30;7.93;;;-0.10;99.90;;;;;;5029002;28;20515;-78
2021/04/14 01:03:48;;;;;;;15.27;7.57;;;-0.10;99.90;;;;;;5027638;28;20022;-77
2021/04/14 01:06:22;;;;;;;14.33;8.30;;;-0.10;99.90;;;;;;5025720;28;20037;-77
2021/04/14 01:08:48;;;;;;;13.20;7.53;;;-0.10;99.90;;;;;;5026358;28;20025;-79
2021/04/14 01:11:14;;;;;;;15.40;7.77;;;-0.10;99.90;;;;;;5026453;28;20036;-77
2021/04/14 01:13:41;;;;;;;12.00;7.47;;;-0.10;99.90;;;;;;5030743;28;20030;-77
2021/04/14 01:16:07;;;;;;;12.13;7.20;;;-0.10;99.90;;;;;;5010579;28;20124;-78
2021/04/14 01:18:36;;;;;;;14.40;7.67;;;-0.10;99.90;;;;;;5029950;28;20040;-78
2021/04/14 01:21:05;;;;;;;14.43;7.93;;;-0.10;99.90;;;;;;5034293;28;20033;-77
2021/04/14 01:23:31;;;;;;;11.13;6.93;;;-0.20;99.90;;;;;;5027291;28;20033;-76
2021/04/14 01:25:58;;;;;;;14.83;7.93;;;-0.10;99.90;;;;;;5029196;28;20381;-78
2021/04/14 01:28:33;;;;;;;12.87;7.57;;;-0.10;99.90;;;;;;5027913;28;20021;-77
2021/04/14 01:31:00;;;;;;;16.30;7.80;;;-0.10;99.90;;;;;;5029741;28;20029;-77
2021/04/14 01:33:30;;;;;;;12.93;7.67;;;-0.10;99.90;;;;;;5028769;28;20033;-80
2021/04/14 01:35:56;;;;;;;15.67;6.97;;;-0.10;99.90;;;;;;5025374;28;20484;-77
2021/04/14 01:38:21;;;;;;;12.87;7.30;;;-0.10;99.90;;;;;;5028409;28;20099;-77
2021/04/14 01:40:47;;;;;;;12.63;7.50;;;-0.20;99.90;;;;;;5030111;28;20029;-78
2021/04/14 01:43:13;;;;;;;12.30;7.70;;;-0.10;99.90;;;;;;5033245;28;20120;-77
2021/04/14 01:45:43;;;;;;;13.13;7.63;;;-0.20;99.90;;;;;;5025220;28;20037;-78
2021/04/14 01:48:11;;;;;;;14.30;7.57;;;-0.10;99.90;;;;;;5026358;28;20038;-79
2021/04/14 01:50:38;;;;;;;12.47;7.27;;;-0.20;99.90;;;;;;5029322;28;20189;-78
2021/04/14 01:53:06;;;;;;;13.60;7.47;;;-0.20;99.90;;;;;;5026770;28;20527;-78
2021/04/14 01:55:31;;;;;;;13.40;7.90;;;-0.20;99.90;;;;;;5025651;28;20041;-78
2021/04/14 01:57:59;;;;;;;11.00;7.27;;;-0.20;99.90;;;;;;5025900;28;20044;-78
2021/04/14 02:00:29;;;;;;;17.50;7.53;;;-0.10;99.90;;;;;;5028960;28;20038;-78
2021/04/14 02:02:55;;;;;;;15.33;7.70;;;-0.10;99.90;;;;;;5013822;28;20145;-77
2021/04/14 02:05:24;;;;;;;12.70;7.00;;;-0.20;99.90;;;;;;5025170;28;20127;-79
2021/04/14 02:07:50;;;;;;;;;;;-0.10;99.90;;;;;;5027937;28;20067;-77
2021/04/14 02:10:16;;;;;;;14.80;6.83;;;-0.20;99.90;;;;;;5027655;28;19917;-77
2021/04/14 02:12:42;;;;;;;13.13;7.70;;;-0.20;99.90;;;;;;5028400;28;20084;-78
2021/04/14 02:15:13;;;;;;;11.40;7.27;;;-0.20;99.90;;;;;;5025084;28;20045;-76
2021/04/14 02:17:38;;;;;;;12.67;7.23;;;-0.20;99.90;;;;;;5031701;28;20052;-78
2021/04/14 02:20:08;;;;;;;11.77;7.10;;;-0.20;99.90;;;;;;5026999;28;20026;-78
2021/04/14 02:22:34;;;;;;;;;;;-0.20;99.90;;;;;;5030609;28;20472;-77
2021/04/14 02:25:00;;;;;;;17.57;8.27;;;-0.20;99.90;;;;;;5028928;28;19963;-78
2021/04/14 02:27:25;;;;;;;12.23;7.47;;;-0.20;99.90;;;;;;5031035;28;20026;-78
2021/04/14 02:29:51;;;;;;;14.37;7.67;;;-0.20;99.90;;;;;;5025818;28;20068;-78
2021/04/14 02:32:16;;;;;;;14.30;8.13;;;-0.20;99.90;;;;;;5031543;28;20049;-77
2021/04/14 02:34:42;;;;;;;12.60;7.47;;;-0.20;99.90;;;;;;5028204;28;20040;-77
2021/04/14 02:37:08;;;;;;;15.87;9.47;;;-0.20;99.90;;;;;;5010702;28;20045;-78
2021/04/14 02:39:33;;;;;;;12.63;7.43;;;-0.20;99.90;;;;;;5026625;28;20022;-78
2021/04/14 02:41:59;;;;;;;13.27;7.33;;;-0.20;99.90;;;;;;5027421;28;20480;-78
2021/04/14 02:44:26;;;;;;;13.43;7.80;;;-0.20;99.90;;;;;;5027475;28;20028;-78
2021/04/14 02:46:52;;;;;;;13.20;7.30;;;-0.20;99.90;;;;;;5027506;28;20025;-79
2021/04/14 02:49:17;;;;;;;12.47;7.70;;;-0.20;99.90;;;;;;5029024;28;20026;-77
2021/04/14 02:51:43;;;;;;;12.07;7.73;;;-0.20;99.90;;;;;;5026201;28;20029;-76
2021/04/14 02:54:08;;;;;;;15.87;8.57;;;-0.20;99.90;;;;;;5028624;28;20067;-77
2021/04/14 02:56:34;;;;;;;13.50;7.70;;;-0.20;99.90;;;;;;5026972;28;20381;-76
2021/04/14 02:59:01;;;;;;;12.30;7.83;;;-0.20;99.90;;;;;;5024419;28;20087;-77
2021/04/14 03:01:27;;;;;;;14.83;7.93;;;-0.20;99.90;;;;;;5027974;28;20040;-76
2021/04/14 03:03:53;;;;;;;14.03;8.23;;;-0.20;99.90;;;;;;5031421;28;20042;-78
2021/04/14 03:06:18;;;;;;;14.23;8.43;;;-0.20;99.90;;;;;;5031198;28;20397;-78
2021/04/14 03:08:45;;;;;;;14.90;7.97;;;-0.20;99.90;;;;;;5036441;28;20029;-77
2021/04/14 03:11:11;;;;;;;14.50;8.10;;;-0.20;99.90;;;;;;5029583;28;20032;-76
2021/04/14 03:13:36;;;;;;;14.50;8.37;;;-0.20;99.90;;;;;;5030608;28;20029;-78
2021/04/14 03:16:02;;;;;;;14.77;8.20;;;-0.20;99.90;;;;;;5031277;28;20029;-78
2021/04/14 03:18:28;;;;;;;15.37;8.40;;;-0.20;99.90;;;;;;5032287;28;20033;-79
2021/04/14 03:20:54;;;;;;;17.00;8.53;;;-0.20;99.90;;;;;;5036997;28;20119;-79
2021/04/14 03:23:20;;;;;;;15.00;8.57;;;-0.20;99.90;;;;;;5030126;28;20037;-78
2021/04/14 03:25:46;;;;;;;14.67;8.47;;;-0.20;99.90;;;;;;5035826;28;20232;-80
2021/04/14 03:28:13;;;;;;;16.27;8.57;;;-0.20;99.90;;;;;;5037357;28;20032;-79
2021/04/14 03:30:39;;;;;;;17.03;9.00;;;-0.20;99.90;;;;;;5026559;28;20108;-78
2021/04/14 03:33:05;;;;;;;13.63;8.53;;;-0.30;99.90;;;;;;5028701;28;20413;-77
2021/04/14 03:35:31;;;;;;;13.70;7.87;;;-0.30;99.90;;;;;;5030839;28;20025;-79
2021/04/14 03:37:57;;;;;;;14.20;8.63;;;-0.40;99.90;;;;;;5034399;28;20041;-78
2021/04/14 03:40:22;;;;;;;15.40;8.97;;;-0.40;99.90;;;;;;5031905;28;20032;-77
2021/04/14 03:42:50;;;;;;;16.03;8.53;;;-0.40;99.90;;;;;;5034453;28;20069;-78
2021/04/14 03:45:22;;;;;;;15.50;9.03;;;-0.50;99.90;;;;;;5031224;28;20029;-77
2021/04/14 03:47:48;;;;;;;17.60;8.80;;;-0.50;99.90;;;;;;5029380;28;20423;-80
2021/04/14 03:50:17;;;;;;;15.20;8.30;;;-0.50;99.90;;;;;;5040799;28;20159;-78
2021/04/14 03:52:43;;;;;;;18.60;9.15;;;-0.50;99.90;;;;;;5034252;28;20037;-78
2021/04/14 03:55:11;;;;;;;17.67;9.07;;;-0.60;99.90;;;;;;5032774;28;20037;-79
2021/04/14 03:57:37;;;;;;;16.33;9.33;;;-0.60;99.90;;;;;;5031281;28;20350;-78
2021/04/14 04:00:07;;;;;;;17.37;10.00;;;-0.60;99.90;;;;;;5027090;28;20021;-79
2021/04/14 04:02:33;;;;;;;15.43;8.73;;;-0.60;99.90;;;;;;5028132;28;20045;-79
2021/04/14 04:04:58;;;;;;;16.60;9.00;;;-0.60;99.90;;;;;;5029218;28;20468;-77
2021/04/14 04:07:24;;;;;;;17.27;8.90;;;-0.60;99.90;;;;;;5030299;28;20021;-80
2021/04/14 04:09:49;;;;;;;18.77;9.37;;;-0.60;99.90;;;;;;5035144;28;20489;-78
2021/04/14 04:12:15;;;;;;;19.37;9.83;;;-0.60;99.90;;;;;;5032802;28;20032;-78
2021/04/14 04:14:48;;;;;;;18.07;9.97;;;-0.60;99.90;;;;;;5014485;28;20045;-77
2021/04/14 04:17:16;;;;;;;17.77;9.30;;;-0.60;99.90;;;;;;5031210;28;20037;-79
2021/04/14 04:19:42;;;;;;;19.40;10.23;;;-0.50;99.90;;;;;;5035460;28;20107;-79
2021/04/14 04:22:08;;;;;;;16.50;9.90;;;-0.50;99.90;;;;;;5030467;28;20037;-77
2021/04/14 04:24:34;;;;;;;16.40;9.17;;;-0.50;99.90;;;;;;5029199;28;20037;-76
2021/04/14 04:27:00;;;;;;;17.87;9.60;;;-0.50;99.90;;;;;;5030289;28;20489;-77
2021/04/14 04:29:25;;;;;;;15.97;9.77;;;-0.60;99.90;;;;;;5034446;28;20043;-80
2021/04/14 04:31:51;;;;;;;15.90;9.90;;;-0.60;99.90;;;;;;5029681;28;20041;-79
2021/04/14 04:34:16;;;;;;;17.60;9.63;;;-0.60;99.90;;;;;;5030680;28;20072;-78
2021/04/14 04:36:42;;;;;;;17.13;9.17;;;-0.60;99.90;;;;;;5030160;28;20322;-79
2021/04/14 04:39:08;;;;;;;16.17;8.83;;;-0.60;99.90;;;;;;5033914;28;20118;-78
2021/04/14 04:41:34;;;;;;;17.47;9.80;;;-0.60;99.90;;;;;;5029693;28;20025;-77
2021/04/14 04:43:59;;;;;;;15.73;9.53;;;-0.60;99.90;;;;;;5029302;28;20488;-78
2021/04/14 04:46:25;;;;;;;16.23;9.83;;;-0.60;99.90;;;;;;5025885;28;20022;-79
2021/04/14 04:48:50;;;;;;;15.43;9.57;;;-0.60;99.90;;;;;;5011163;28;20033;-77
2021/04/14 04:51:16;;;;;;;17.73;10.30;;;-0.60;99.90;;;;;;5029810;28;20025;-78
2021/04/14 04:53:43;;;;;;;18.53;9.97;;;-0.60;99.90;;;;;;5029850;28;20041;-78
2021/04/14 04:56:08;;;;;;;15.47;10.20;;;-0.60;99.90;;;;;;5027698;28;20111;-77
2021/04/14 04:58:34;;;;;;;16.33;9.17;;;-0.60;99.90;;;;;;5026673;28;20112;-76
2021/04/14 05:00:59;;;;;;;19.37;9.83;;;-0.60;99.90;;;;;;5029209;28;20463;-78
2021/04/14 05:03:31;;;;;;;17.73;10.10;;;-0.50;99.90;;;;;;5024502;28;20691;-77
2021/04/14 05:05:58;;;;;;;16.53;9.20;;;-0.50;99.90;;;;;;5025256;28;20032;-77
2021/04/14 05:08:24;;;;;;;18.90;10.30;;;-0.40;99.90;;;;;;5028149;28;20028;-78
2021/04/14 05:10:49;;;;;;;17.87;10.07;;;-0.40;99.90;;;;;;5028815;28;20037;-78
2021/04/14 05:13:15;;;;;;;16.70;10.33;;;-0.30;99.90;;;;;;5030192;28;20117;-79
2021/04/14 05:15:41;;;;;;;18.13;10.50;;;-0.20;99.90;;;;;;5029101;28;20030;-78
2021/04/14 05:18:08;;;;;;;17.20;9.33;;;-0.10;99.90;;;;;;5032098;28;20056;-79
2021/04/14 05:20:35;;;;;;;18.17;9.60;;;0.00;99.90;;;;;;5028263;28;20034;-79
2021/04/14 05:23:01;;;;;;;17.30;9.57;;;0.10;99.90;;;;;;5028794;28;20099;-82
2021/04/14 05:25:33;;;;;;;18.53;9.60;;;0.20;99.90;;;;;;5027459;28;20053;-84
2021/04/14 05:28:09;;;;;;;19.00;9.80;;;0.30;99.90;;;;;;5030917;28;20361;-82
2021/04/14 05:30:35;;;;;;;17.87;8.80;;;0.40;99.90;;;;;;5036060;28;20025;-81
2021/04/14 05:33:01;;;;;;;18.77;9.40;;;0.60;99.90;;;;;;5032518;28;20029;-83
2021/04/14 05:35:26;;;;;;;13.23;8.60;;;1.20;99.90;;;;;;5028846;28;20025;-80
2021/04/14 05:37:52;;;;;;;12.13;7.95;;;1.90;99.90;;;;;;5032336;28;20041;-80
2021/04/14 05:40:19;;;;;;;12.77;8.27;;;2.50;99.90;;;;;;5028913;28;20022;-84
2021/04/14 05:42:47;;;;;;;14.85;8.25;;;2.80;99.90;;;;;;5028311;28;20572;-84
2021/04/14 05:45:16;;;;;;;11.88;7.47;;;3.00;99.90;;;;;;5031334;28;20032;-84
2021/04/14 05:47:43;;;;;;;10.60;7.43;;;3.20;99.90;;;;;;5029961;28;20034;-83
2021/04/14 05:50:13;;;;;;;13.23;7.72;;;3.30;99.90;;;;;;5026041;28;20100;-83
2021/04/14 05:52:38;;;;;;;14.15;7.85;;;3.40;99.90;;;;;;5032698;28;20021;-84
2021/04/14 05:55:05;;;;;;;14.10;7.75;;;3.50;99.90;;;;;;5028296;28;20032;-85
2021/04/14 05:57:31;;;;;;;12.15;7.57;;;4.00;99.90;;;;;;5028118;28;20087;-84
2021/04/14 05:59:56;;;;;;;12.05;7.50;;;4.40;99.90;;;;;;5029050;28;20025;-85
2021/04/14 06:02:22;;;;;;;13.60;7.85;;;4.40;99.90;;;;;;5023548;28;20045;-83
2021/04/14 06:04:50;;;;;;;15.25;7.45;;;4.20;99.90;;;;;;5012679;28;20040;-85
2021/04/14 06:07:15;;;;;;;12.73;7.38;;;4.50;99.90;;;;;;5028355;28;20025;-85
2021/04/14 06:09:42;;;;;;;15.38;7.47;;;4.60;99.90;;;;;;5029833;28;20035;-83
2021/04/14 06:12:08;;;;;;;10.43;7.22;;;4.90;99.90;;;;;;5023759;28;20107;-84
2021/04/14 06:14:34;;;;;;;12.45;7.70;;;5.00;99.90;;;;;;5024623;28;20022;-83
2021/04/14 06:16:59;;;;;;;12.18;7.20;;;5.30;99.90;;;;;;5009288;28;20041;-83
2021/04/14 06:19:25;;;;;;;12.45;6.95;;;5.60;99.90;;;;;;5040305;28;20025;-83
2021/04/14 06:21:50;;;;;;;13.85;7.18;;;6.10;99.90;;;;;;5045893;28;20499;-84
2021/04/14 06:24:16;;;;;;;10.95;6.72;;;6.90;99.90;;;;;;5036150;28;20017;-85
2021/04/14 06:26:46;;;;;;;9.93;5.50;;;7.60;99.90;;;;;;5034364;28;20057;-82
2021/04/14 06:29:13;;;;;;;8.93;5.80;;;7.40;99.90;;;;;;5024600;28;20040;-81
2021/04/14 06:31:40;;;;;;;8.30;5.30;;;7.70;99.90;;;;;;5030128;28;20089;-85
2021/04/14 06:34:19;;;;;;;11.52;6.40;;;7.10;99.90;;;;;;5028396;28;20112;-84
2021/04/14 06:36:49;;;;;;;12.07;6.38;;;6.50;99.90;;;;;;5037459;28;20037;-83
2021/04/14 06:39:15;;;;;;;;;;;6.40;99.90;;;;;;5037346;28;20026;-83
2021/04/14 06:42:10;;;;;;;9.98;5.18;;;6.30;99.90;;;;;;5024926;28;19964;-83
2021/04/14 06:45:03;;;;;;;12.10;5.80;;;6.10;99.90;;;;;;5025685;28;20405;-82
2021/04/14 06:47:42;;;;;;;9.88;5.40;;;6.00;99.90;;;;;;5005872;28;20053;-83
2021/04/14 06:50:19;;;;;;;8.38;5.35;;;5.90;99.90;;;;;;5025925;28;20105;-84
2021/04/14 06:52:58;;;;;;;9.38;6.22;;;5.40;99.90;;;;;;5029634;28;20037;-85
2021/04/14 06:56:07;;;;;;;9.38;5.60;;;4.90;99.90;;;;;;5024714;28;20094;-84
2021/04/14 06:59:02;;;;;;;9.93;5.45;;;4.70;99.90;;;;;;4929646;29;20083;-83
2021/04/14 07:01:39;;;;;;;12.23;5.45;;;4.70;99.90;;;;;;4929514;29;20103;-82
2021/04/14 07:04:15;;;;;;;10.65;5.75;;;4.50;99.90;;;;;;4927862;29;20402;-81
2021/04/14 07:06:45;;;;;;;9.30;6.15;;;4.10;99.90;;;;;;4928456;29;20043;-81
2021/04/14 07:09:24;;;;;;;10.55;5.97;;;3.70;99.90;;;;;;4933782;29;20047;-81
2021/04/14 07:11:50;;;;;;;10.32;6.20;;;3.80;99.90;;;;;;4928465;29;20396;-84
2021/04/14 07:14:17;;;;;;;10.38;5.45;;;3.80;99.90;;;;;;4928130;29;20034;-85
2021/04/14 07:16:58;;;;;;;8.20;5.68;;;3.90;99.90;;;;;;4915036;29;20058;-86
2021/04/14 07:19:30;;;;;;;11.40;5.43;;;3.80;99.90;;;;;;4924523;29;20047;-82
2021/04/14 07:22:06;;;;;;;9.52;5.40;;;3.70;99.90;;;;;;4938839;29;20079;-83
2021/04/14 07:24:39;;;;;;;11.98;5.68;;;3.70;99.90;;;;;;4938168;29;20083;-84
2021/04/14 07:27:25;;;;;;;11.07;5.90;;;3.70;99.90;;;;;;4943366;29;20023;-84
2021/04/14 07:30:24;;;;;;;11.52;5.97;;;3.70;99.90;;;;;;4931682;29;20071;-85
2021/04/14 07:33:13;;;;;;;9.73;5.65;;;4.00;99.90;;;;;;4925570;29;20424;-85
2021/04/14 07:36:03;;;;;;;10.45;5.85;;;4.40;99.90;;;;;;4995366;28;20073;-85
2021/04/14 07:38:28;;;;;;;;;;;4.50;99.90;;;;;;5015514;28;20511;-85
2021/04/14 07:41:21;;;;;;;10.75;5.07;;;4.30;99.90;;;;;;5029685;28;19982;-82
2021/04/14 07:44:20;;;;;;;10.98;5.10;;;4.30;99.90;;;;;;5023430;28;20056;-82
2021/04/14 07:46:48;;;;;;;10.52;4.72;;;4.30;99.90;;;;;;5007064;28;20029;-85
2021/04/14 07:49:17;;;;;;;9.52;5.28;;;4.30;99.90;;;;;;5025224;28;20033;-86
2021/04/14 07:51:43;;;;;;;10.70;4.95;;;4.40;99.90;;;;;;5036616;28;20586;-85
2021/04/14 07:54:18;;;;;;;11.43;4.75;;;4.70;99.90;;;;;;5026318;28;20124;-85
2021/04/14 07:56:51;;;;;;;11.35;4.85;;;4.80;99.90;;;;;;5025361;28;20038;-87
2021/04/14 07:59:30;;;;;;;9.52;5.18;;;4.80;99.90;;;;;;5033040;28;20034;-79
2021/04/14 08:02:02;;;;;;;11.07;5.27;;;4.90;99.90;;;;;;5024283;28;20026;-83
2021/04/14 08:04:46;;;;;;;8.75;4.55;;;4.80;99.90;;;;;;5031201;28;20806;-83
2021/04/14 08:07:22;;;;;;;8.85;4.78;;;4.50;99.90;;;;;;5032296;28;20021;-87
2021/04/14 08:09:55;;;;;;;8.77;4.60;;;4.20;99.90;;;;;;5032148;28;20084;-84
2021/04/14 08:12:34;;;;;;;11.48;5.00;;;4.20;99.90;;;;;;5016600;28;20022;-87
2021/04/14 08:15:27;;;;;;;7.40;4.15;;;4.20;99.90;;;;;;5036357;28;20377;-86
2021/04/14 08:18:05;;;;;;;7.00;4.10;;;4.30;99.90;;;;;;5025811;28;20030;-87
2021/04/14 08:20:33;;;;;;;6.47;3.90;;;4.40;99.90;;;;;;5017345;28;20025;-86
2021/04/14 08:23:17;;;;;;;9.10;4.65;;;4.20;99.90;;;;;;5022751;28;20052;-88
2021/04/14 08:25:50;;;;;;;8.93;4.47;;;4.20;99.90;;;;;;5029873;28;20049;-87
2021/04/14 08:28:40;;;;;;;7.82;3.92;;;4.30;99.90;;;;;;5041374;28;20030;-84
2021/04/14 08:31:35;;;;;;;7.88;4.22;;;4.20;99.90;;;;;;5058615;28;20022;-84
2021/04/14 08:34:19;;;;;;;9.02;4.45;;;4.20;99.90;;;;;;5048334;28;20063;-88
2021/04/14 08:36:57;;;;;;;10.10;4.40;;;4.40;99.90;;;;;;5030308;28;20059;-86
2021/04/14 08:39:47;;;;;;;6.25;3.80;;;4.50;99.90;;;;;;5045247;28;20091;-84
2021/04/14 08:42:12;;;;;;;;;;;4.40;99.90;;;;;;5025861;28;20045;-84
2021/04/14 08:44:40;;;;;;;8.45;3.40;;;4.50;99.90;;;;;;5048614;28;19976;-87
2021/04/14 08:47:28;;;;;;;7.15;3.80;;;4.60;99.90;;;;;;5048527;28;20033;-85
2021/04/14 08:50:04;;;;;;;7.80;3.80;;;4.70;99.90;;;;;;5020811;28;20028;-85
2021/04/14 08:52:31;;;;;;;8.95;4.05;;;4.90;99.90;;;;;;5042248;28;20064;-87
2021/04/14 08:54:58;;;;;;;9.73;3.72;;;4.90;99.90;;;;;;5041428;28;20032;-86
2021/04/14 08:57:24;;;;;;;7.15;3.60;;;5.00;99.90;;;;;;5041988;28;20083;-86
2021/04/14 08:59:52;;;;;;;5.00;3.13;;;5.10;99.90;;;;;;5031504;28;20117;-85
2021/04/14 09:02:19;;;;;;;6.95;3.45;;;5.10;99.90;;;;;;5047202;28;20025;-85
2021/04/14 09:04:50;;;;;;;8.82;4.35;;;5.10;99.90;;;;;;5036695;28;20028;-85
2021/04/14 09:07:39;;;;;;;6.97;3.85;;;5.00;99.90;;;;;;5036228;28;20073;-84
2021/04/14 09:10:09;;;;;;;6.68;3.90;;;4.80;99.90;;;;;;5033202;28;20068;-85
2021/04/14 09:12:42;;;;;;;6.53;3.58;;;4.70;99.90;;;;;;5041511;28;20045;-84
2021/04/14 09:15:11;;;;;;;8.35;4.00;;;4.70;99.90;;;;;;5042309;28;20048;-86
2021/04/14 09:17:37;;;;;;;7.07;4.40;;;4.70;99.90;;;;;;5042402;28;20034;-85
2021/04/14 09:20:21;;;;;;;7.95;3.90;;;4.70;99.90;;;;;;5040243;28;20037;-86
2021/04/14 09:22:59;;;;;;;5.95;3.45;;;4.70;99.90;;;;;;5039723;28;20090;-84
2021/04/14 09:25:41;;;;;;;7.28;3.95;;;4.50;99.90;;;;;;5042288;28;20045;-86
2021/04/14 09:28:09;;;;;;;8.20;3.70;;;4.30;99.90;;;;;;5046574;28;20449;-87
2021/04/14 09:30:40;;;;;;;5.95;3.20;;;4.30;99.90;;;;;;5046091;28;20060;-87
2021/04/14 09:33:06;;;;;;;6.90;4.03;;;4.40;99.90;;;;;;5044177;28;20026;-86
2021/04/14 09:35:32;;;;;;;6.45;2.90;;;4.30;99.90;;;;;;5045349;28;20048;-86
2021/04/14 09:38:27;;;;;;;5.65;2.90;;;4.30;99.90;;;;;;5042387;28;20109;-87
2021/04/14 09:41:05;;;;;;;4.28;2.63;;;4.30;99.90;;;;;;5019631;28;20511;-86
2021/04/14 09:43:34;;;;;;;5.78;3.00;;;4.30;99.90;;;;;;5023903;28;20034;-86
2021/04/14 09:46:04;;;;;;;4.60;3.03;;;4.40;99.90;;;;;;5018441;28;20033;-84
2021/04/14 09:48:44;;;;;;;7.25;3.05;;;4.30;99.90;;;;;;5031513;28;20427;-82
2021/04/14 09:51:38;;;;;;;9.63;3.42;;;4.40;99.90;;;;;;5016263;28;20036;-85
2021/04/14 09:54:11;;;;;;;4.55;3.05;;;4.70;99.90;;;;;;5037294;28;20444;-84
2021/04/14 09:56:46;;;;;;;5.03;2.47;;;4.80;99.90;;;;;;5020518;28;20033;-83
2021/04/14 09:59:26;;;;;;;4.32;2.38;;;4.60;99.90;;;;;;5015608;28;20029;-83
2021/04/14 10:01:58;;;;;;;5.75;2.58;;;4.40;99.90;;;;;;5034573;28;20029;-82
2021/04/14 10:04:25;;;;;;;4.68;3.13;;;4.40;99.90;;;;;;5030022;28;20021;-86
2021/04/14 10:07:05;;;;;;;6.28;2.90;;;4.80;99.90;;;;;;5024159;28;20104;-85
2021/04/14 10:09:35;;;;;;;4.38;2.83;;;4.90;99.90;;;;;;5031739;28;20062;-82
2021/04/14 10:12:16;;;;;;;5.93;3.30;;;5.40;99.90;;;;;;5019731;28;20535;-84
2021/04/14 10:14:43;;;;;;;5.00;2.97;;;5.80;99.90;;;;;;5034370;28;20447;-84
2021/04/14 10:17:09;;;;;;;5.43;3.05;;;6.10;99.90;;;;;;5020740;28;20045;-86
2021/04/14 10:19:36;;;;;;;7.15;3.83;;;6.20;99.90;;;;;;5037700;28;20025;-86
2021/04/14 10:22:25;;;;;;;7.68;3.70;;;6.10;99.90;;;;;;5031002;28;20021;-84
2021/04/14 10:25:01;;;;;;;7.18;2.80;;;6.20;99.90;;;;;;5036674;28;20073;-85
2021/04/14 10:27:27;;;;;;;4.18;2.60;;;6.20;99.90;;;;;;5038076;28;20060;-84
2021/04/14 10:29:53;;;;;;;5.07;2.55;;;6.20;99.90;;;;;;5038888;28;20064;-84
2021/04/14 10:32:24;;;;;;;7.03;3.95;;;6.10;99.90;;;;;;5013074;28;20037;-84
2021/04/14 10:34:51;;;;;;;4.93;2.72;;;6.20;99.90;;;;;;5017777;28;20033;-83
2021/04/14 10:37:23;;;;;;;6.05;2.90;;;6.40;99.90;;;;;;5023686;28;20147;-87
2021/04/14 10:39:49;;;;;;;5.75;3.30;;;6.50;99.90;;;;;;5033900;28;20037;-87
2021/04/14 10:42:28;;;;;;;4.97;2.40;;;6.50;99.90;;;;;;5034759;28;20029;-87
2021/04/14 10:45:05;;;;;;;4.25;2.25;;;6.40;99.90;;;;;;5037136;28;20393;-88
2021/04/14 10:47:34;;;;;;;7.22;2.58;;;6.00;99.90;;;;;;5040425;28;20513;-88
2021/04/14 10:50:17;;;;;;;5.75;2.38;;;5.50;99.90;;;;;;5053846;28;20075;-90
2021/04/14 10:52:45;;;;;;;5.68;1.90;;;5.30;99.90;;;;;;5025709;28;20388;-89
2021/04/14 10:55:14;;;;;;;5.53;2.50;;;5.10;99.90;;;;;;5036866;28;20025;-87
2021/04/14 10:58:02;;;;;;;3.72;2.13;;;5.10;99.90;;;;;;5036521;28;20041;-89
2021/04/14 11:00:40;;;;;;;3.60;2.28;;;5.00;99.90;;;;;;5038905;28;20041;-89
2021/04/14 11:03:09;;;;;;;5.05;1.83;;;4.80;99.90;;;;;;5023675;28;20042;-86
2021/04/14 11:05:37;;;;;;;3.28;1.60;;;4.80;99.90;;;;;;5037391;28;20040;-87
2021/04/14 11:08:03;;;;;;;5.00;2.08;;;4.60;99.90;;;;;;5035569;28;20712;-87
2021/04/14 11:10:33;;;;;;;3.13;1.67;;;4.60;99.90;;;;;;5017079;28;20041;-85
2021/04/14 11:12:59;;;;;;;4.85;1.92;;;4.60;99.90;;;;;;5034927;28;20029;-81
2021/04/14 11:15:31;;;;;;;5.93;2.42;;;4.60;99.90;;;;;;5034894;28;20029;-85
2021/04/14 11:18:06;;;;;;;4.55;2.40;;;4.60;99.90;;;;;;5036159;28;20034;-86
2021/04/14 11:21:06;;;;;;;5.68;2.67;;;4.80;99.90;;;;;;5033886;28;20140;-86
2021/04/14 11:23:38;;;;;;;4.95;2.00;;;4.70;99.90;;;;;;5029193;28;20033;-85
2021/04/14 11:26:10;;;;;;;4.15;2.22;;;4.80;99.90;;;;;;5034060;28;20048;-90
2021/04/14 11:28:44;;;;;;;6.82;2.22;;;4.90;99.90;;;;;;5036063;28;20038;-86
2021/04/14 11:31:12;;;;;;;6.55;2.35;;;5.00;99.90;;;;;;5040707;28;20049;-81
2021/04/14 11:33:42;;;;;;;4.97;2.10;;;5.10;99.90;;;;;;5036609;28;20437;-80
2021/04/14 11:36:29;;;;;;;4.85;2.40;;;5.30;99.90;;;;;;5016739;28;20048;-81
2021/04/14 11:39:18;;;;;;;6.85;1.90;;;5.40;99.90;;;;;;5034439;28;20034;-84
2021/04/14 11:42:01;;;;;;;4.43;2.08;;;5.40;99.90;;;;;;5029091;28;20100;-80
2021/04/14 11:44:49;;;;;;;5.57;2.00;;;5.40;99.90;;;;;;5033607;28;20047;-80
2021/04/14 11:47:31;;;;;;;4.05;1.85;;;5.30;99.90;;;;;;5036304;28;20025;-80
2021/04/14 11:50:09;;;;;;;4.82;2.28;;;5.30;99.90;;;;;;5027931;28;20488;-81
2021/04/14 11:52:37;;;;;;;5.50;3.17;;;5.40;99.90;;;;;;5032215;28;20117;-80
2021/04/14 11:55:21;;;;;;;4.75;2.28;;;5.60;99.90;;;;;;5032611;28;20105;-81
2021/04/14 11:57:54;;;;;;;5.13;2.20;;;5.70;99.90;;;;;;5030234;28;20049;-81
2021/04/14 12:00:31;;;;;;;5.85;2.53;;;5.70;99.90;;;;;;5015021;28;20029;-81
2021/04/14 12:03:03;;;;;;;5.47;2.15;;;5.70;99.90;;;;;;5029007;28;20043;-81
2021/04/14 12:05:29;;;;;;;4.75;2.72;;;5.80;99.90;;;;;;5027022;28;20052;-81
2021/04/14 12:07:55;;;;;;;8.80;2.90;;;5.80;99.90;;;;;;5031064;28;20032;-80
2021/04/14 12:10:21;;;;;;;4.28;2.17;;;5.90;99.90;;;;;;5031841;28;20084;-81
2021/04/14 12:12:48;;;;;;;4.10;2.30;;;5.90;99.90;;;;;;5031486;28;20025;-79
2021/04/14 12:15:16;;;;;;;3.90;1.92;;;5.90;99.90;;;;;;5031460;28;20518;-80
2021/04/14 12:17:42;;;;;;;4.13;2.20;;;6.00;99.90;;;;;;5032166;28;20056;-78
2021/04/14 12:20:08;;;;;;;5.15;2.58;;;5.80;99.90;;;;;;5013454;28;20017;-78
2021/04/14 12:22:33;;;;;;;3.90;2.40;;;5.80;99.90;;;;;;5030838;28;20061;-79
2021/04/14 12:24:59;;;;;;;4.57;2.65;;;5.80;99.90;;;;;;5009585;28;20084;-80
2021/04/14 12:27:25;;;;;;;4.30;2.40;;;5.50;99.90;;;;;;5030811;28;20025;-80
2021/04/14 12:29:51;;;;;;;3.70;2.30;;;5.50;99.90;;;;;;5032314;28;20542;-80
2021/04/14 12:32:17;;;;;;;4.75;2.13;;;5.40;99.90;;;;;;5030681;28;20049;-80
2021/04/14 12:34:43;;;;;;;4.85;2.47;;;5.70;99.90;;;;;;5031702;28;20049;-80
2021/04/14 12:37:08;;;;;;;5.38;2.42;;;6.00;99.90;;;;;;5031142;28;20080;-79
2021/04/14 12:39:34;;;;;;;5.35;2.38;;;6.30;99.90;;;;;;5029067;28;20033;-82
2021/04/14 12:42:00;;;;;;;7.50;2.83;;;6.40;99.90;;;;;;5031992;28;20104;-81
2021/04/14 12:44:25;;;;;;;5.53;2.78;;;6.40;99.90;;;;;;5030643;28;20041;-79
2021/04/14 12:46:52;;;;;;;6.13;2.90;;;6.40;99.90;;;;;;5032280;28;20067;-81
2021/04/14 12:49:21;;;;;;;4.35;2.92;;;6.50;99.90;;;;;;5038562;28;20030;-81
2021/04/14 12:51:56;;;;;;;8.23;2.97;;;6.60;99.90;;;;;;5040583;28;20028;-79
2021/04/14 12:54:24;;;;;;;4.75;2.80;;;6.40;99.90;;;;;;5035751;28;20084;-82
2021/04/14 12:56:54;;;;;;;5.28;3.00;;;6.30;99.90;;;;;;5036638;28;20549;-81
2021/04/14 12:59:25;;;;;;;4.75;2.70;;;6.30;99.90;;;;;;5029651;28;20088;-80
2021/04/14 13:01:55;;;;;;;6.80;3.15;;;6.00;99.90;;;;;;5032996;28;20033;-82
2021/04/14 13:04:52;;;;;;;4.57;2.25;;;6.00;99.90;;;;;;5021569;28;20022;-84